createdAt,value
2022-10-11T00:02:48.160Z,98432.03
2022-10-11T00:06:09.420Z,98426.91
2022-10-11T00:09:29.549Z,98426.63
2022-10-11T00:13:12.234Z,98425.56
2022-10-11T00:16:33.588Z,98414.75
2022-10-11T00:19:56.591Z,98425.56
2022-10-11T00:23:17.166Z,98420.16
2022-10-11T00:26:37.994Z,98425.97
2022-10-11T00:29:56.169Z,98417.91
2022-10-11T00:33:15.476Z,98412.09
2022-10-11T00:37:24.447Z,98411.44
2022-10-11T00:40:46.798Z,98413.97
2022-10-11T00:44:17.040Z,98413.47
2022-10-11T00:47:36.386Z,98403.88
2022-10-11T00:51:01.611Z,98410.28
2022-10-11T00:54:25.458Z,98408.16
2022-10-11T00:57:49.952Z,98406.81
2022-10-11T01:01:11.547Z,98401.38
2022-10-11T01:04:33.305Z,98397.31
2022-10-11T01:07:55.047Z,98396.75
2022-10-11T01:11:20.501Z,98394.63
2022-10-11T01:15:16.717Z,98396.34
2022-10-11T01:18:45.837Z,98393.63
2022-10-11T01:22:21.529Z,98388.03
2022-10-11T01:25:59.522Z,98389.75
2022-10-11T01:29:30.715Z,98394.13
2022-10-11T01:33:02.173Z,98397.22
2022-10-11T01:36:29.023Z,98392.75
2022-10-11T01:39:53.835Z,98390.53
2022-10-11T01:43:15.800Z,98383.63
2022-10-11T01:46:38.474Z,98390.22
2022-10-11T01:50:01.170Z,98385.25
2022-10-11T01:53:41.573Z,98377.63
2022-10-11T01:57:20.600Z,98374.84
2022-10-11T02:00:51.920Z,98370.59
2022-10-11T02:04:22.673Z,98373.19
2022-10-11T02:07:54.011Z,98372.00
2022-10-11T02:11:21.131Z,98374.91
2022-10-11T02:14:44.286Z,98370.63
2022-10-11T02:18:13.052Z,98375.50
2022-10-11T02:21:38.608Z,98370.94
2022-10-11T02:25:04.091Z,98366.38
2022-10-11T02:28:31.516Z,98360.47
2022-10-11T02:31:53.975Z,98362.34
2022-10-11T02:35:13.695Z,98363.00
2022-10-11T02:38:40.144Z,98357.34
2022-10-11T02:42:05.959Z,98362.38
2022-10-11T02:45:33.208Z,98357.44
2022-10-11T02:48:55.833Z,98362.84
2022-10-11T02:52:15.966Z,98360.47
2022-10-11T02:55:37.993Z,98356.03
2022-10-11T02:58:56.916Z,98359.69
2022-10-11T03:02:18.583Z,98359.88
2022-10-11T03:06:00.897Z,98352.56
2022-10-11T03:09:21.040Z,98358.00
2022-10-11T03:12:40.777Z,98358.16
2022-10-11T03:16:03.649Z,98353.66
2022-10-11T03:19:25.619Z,98354.16
2022-10-11T03:22:49.368Z,98359.16
2022-10-11T03:26:10.332Z,98358.53
2022-10-11T03:29:31.027Z,98351.56
2022-10-11T03:32:52.552Z,98351.44
2022-10-11T03:36:12.207Z,98346.63
2022-10-11T03:39:29.292Z,98349.25
2022-10-11T03:42:50.147Z,98345.81
2022-10-11T03:46:10.956Z,98339.50
2022-10-11T03:49:33.516Z,98344.13
2022-10-11T03:52:54.430Z,98351.00
2022-10-11T03:56:17.917Z,98351.84
2022-10-11T03:59:41.261Z,98355.72
2022-10-11T04:03:05.052Z,98352.72
2022-10-11T04:06:25.386Z,98351.22
2022-10-11T04:09:46.298Z,98353.47
2022-10-11T04:13:05.445Z,98357.56
2022-10-11T04:16:25.990Z,98353.59
2022-10-11T04:19:47.184Z,98351.00
2022-10-11T04:23:06.990Z,98359.31
2022-10-11T04:26:26.676Z,98356.88
2022-10-11T04:29:46.870Z,98364.63
2022-10-11T04:33:08.660Z,98368.63
2022-10-11T04:36:32.929Z,98360.84
2022-10-11T04:39:54.565Z,98360.69
2022-10-11T04:43:17.678Z,98361.09
2022-10-11T04:46:38.352Z,98359.66
2022-10-11T04:49:58.218Z,98353.63
2022-10-11T04:53:18.134Z,98357.69
2022-10-11T04:56:40.965Z,98355.47
2022-10-11T05:00:01.186Z,98357.56
2022-10-11T05:03:22.934Z,98353.28
2022-10-11T05:06:44.829Z,98356.16
2022-10-11T05:10:06.786Z,98363.59
2022-10-11T05:13:28.217Z,98357.44
2022-10-11T05:16:48.093Z,98362.75
2022-10-11T05:20:11.026Z,98360.16
2022-10-11T05:23:34.911Z,98354.94
2022-10-11T05:26:56.965Z,98367.97
2022-10-11T05:30:20.027Z,98363.56
2022-10-11T05:33:40.372Z,98372.53
2022-10-11T05:37:01.228Z,98380.44
2022-10-11T05:40:21.172Z,98383.06
2022-10-11T05:43:44.530Z,98380.63
2022-10-11T05:47:05.710Z,98389.22
2022-10-11T05:50:28.934Z,98391.53
2022-10-11T05:53:52.348Z,98397.66
2022-10-11T05:57:10.787Z,98403.53
2022-10-11T06:00:31.509Z,98409.72
2022-10-11T06:03:52.763Z,98409.00
2022-10-11T06:07:15.036Z,98409.19
2022-10-11T06:10:35.442Z,98414.88
2022-10-11T06:13:58.159Z,98414.19
2022-10-11T06:17:31.736Z,98414.59
2022-10-11T06:21:07.881Z,98411.94
2022-10-11T06:24:41.691Z,98424.34
2022-10-11T06:28:21.613Z,98421.78
2022-10-11T06:31:59.945Z,98428.22
2022-10-11T06:35:37.660Z,98426.97
2022-10-11T06:39:20.731Z,98429.09
2022-10-11T06:42:58.720Z,98440.13
2022-10-11T06:46:20.056Z,98446.34
2022-10-11T06:49:54.055Z,98436.09
2022-10-11T06:53:30.833Z,98448.81
2022-10-11T06:57:06.143Z,98444.81
2022-10-11T07:00:45.051Z,98444.59
2022-10-11T07:04:16.633Z,98453.59
2022-10-11T07:07:51.475Z,98445.22
2022-10-11T07:11:29.938Z,98448.94
2022-10-11T07:15:10.375Z,98461.00
2022-10-11T07:19:00.133Z,98458.97
2022-10-11T07:22:40.501Z,98460.66
2022-10-11T07:26:21.436Z,98456.38
2022-10-11T07:30:09.939Z,98463.09
2022-10-11T07:33:59.038Z,98461.56
2022-10-11T07:37:37.614Z,98457.53
2022-10-11T07:41:11.974Z,98464.00
2022-10-11T07:44:51.500Z,98459.81
2022-10-11T07:48:29.635Z,98466.44
2022-10-11T07:52:06.761Z,98463.03
2022-10-11T07:55:52.655Z,98464.06
2022-10-11T07:59:27.856Z,98468.53
2022-10-11T08:03:03.342Z,98472.25
2022-10-11T08:06:44.025Z,98471.28
2022-10-11T08:10:32.181Z,98457.56
2022-10-11T08:14:11.424Z,98471.19
2022-10-11T08:17:49.030Z,98462.53
2022-10-11T08:21:29.347Z,98462.53
2022-10-11T08:25:16.228Z,98471.94
2022-10-11T08:28:55.411Z,98474.84
2022-10-11T08:32:33.923Z,98480.06
2022-10-11T08:36:25.971Z,98480.84
2022-10-11T08:40:06.675Z,98481.78
2022-10-11T08:43:57.136Z,98483.31
2022-10-11T08:47:39.190Z,98480.53
2022-10-11T08:51:22.367Z,98482.06
2022-10-11T08:55:01.061Z,98478.50
2022-10-11T08:58:39.787Z,98485.72
2022-10-11T09:02:49.231Z,98486.97
2022-10-11T09:06:22.368Z,98495.41
2022-10-11T09:10:02.366Z,98493.78
2022-10-11T09:13:44.161Z,98483.53
2022-10-11T09:17:12.328Z,98494.34
2022-10-11T09:20:43.491Z,98489.44
2022-10-11T09:24:24.535Z,98495.88
2022-10-11T09:28:02.228Z,98490.06
2022-10-11T09:31:24.929Z,98495.41
2022-10-11T09:34:45.552Z,98501.09
2022-10-11T09:38:12.766Z,98500.31
2022-10-11T09:41:42.823Z,98492.09
2022-10-11T09:45:17.882Z,98493.94
2022-10-11T09:48:25.005Z,98502.78
2022-10-11T09:51:29.930Z,98506.31
2022-10-11T09:54:42.653Z,98498.31
2022-10-11T09:57:56.551Z,98504.84
2022-10-11T10:01:07.644Z,98502.59
2022-10-11T10:04:14.163Z,98505.13
2022-10-11T10:07:17.905Z,98504.38
2022-10-11T10:10:30.264Z,98499.44
2022-10-11T10:13:46.341Z,98500.38
2022-10-11T10:16:59.181Z,98496.38
2022-10-11T10:20:07.455Z,98502.59
2022-10-11T10:23:22.807Z,98499.56
2022-10-11T10:26:27.860Z,98493.75
2022-10-11T10:29:33.165Z,98488.41
2022-10-11T10:32:47.547Z,98490.50
2022-10-11T10:35:56.616Z,98489.50
2022-10-11T10:39:06.900Z,98490.06
2022-10-11T10:42:16.560Z,98487.25
2022-10-11T10:45:27.802Z,98490.91
2022-10-11T10:49:23.266Z,98490.84
2022-10-11T10:52:42.963Z,98488.56
2022-10-11T10:55:53.223Z,98473.28
2022-10-11T10:59:07.011Z,98477.13
2022-10-11T11:02:39.762Z,98472.53
2022-10-11T11:05:49.510Z,98471.19
2022-10-11T11:09:05.016Z,98472.53
2022-10-11T11:12:25.063Z,98472.09
2022-10-11T11:15:38.087Z,98475.69
2022-10-11T11:18:52.511Z,98477.22
2022-10-11T11:22:03.478Z,98481.59
2022-10-11T11:25:20.955Z,98468.16
2022-10-11T11:28:48.331Z,98472.44
2022-10-11T11:32:08.841Z,98473.59
2022-10-11T11:35:22.750Z,98470.69
2022-10-11T11:38:35.439Z,98476.13
2022-10-11T11:41:45.477Z,98469.50
2022-10-11T11:44:50.881Z,98460.81
2022-10-11T11:48:02.045Z,98466.69
2022-10-11T11:51:13.095Z,98470.72
2022-10-11T11:54:34.094Z,98461.50
2022-10-11T11:57:53.721Z,98459.28
2022-10-11T12:01:06.832Z,98461.56
2022-10-11T12:04:20.345Z,98469.72
2022-10-11T12:07:29.326Z,98466.88
2022-10-11T12:10:37.229Z,98458.16
2022-10-11T12:13:42.518Z,98464.47
2022-10-11T12:17:20.815Z,98461.75
2022-10-11T12:20:28.826Z,98465.41
2022-10-11T12:23:48.301Z,98468.03
2022-10-11T12:26:56.791Z,98458.47
2022-10-11T12:30:00.819Z,98460.84
2022-10-11T12:33:08.069Z,98458.44
2022-10-11T12:36:34.884Z,98462.78
2022-10-11T12:39:52.963Z,98466.59
2022-10-11T12:43:12.161Z,98465.97
2022-10-11T12:46:40.520Z,98459.97
2022-10-11T12:49:59.875Z,98469.63
2022-10-11T12:53:17.602Z,98462.06
2022-10-11T12:56:30.551Z,98462.69
2022-10-11T12:59:35.114Z,98466.88
2022-10-11T13:02:42.994Z,98461.25
2022-10-11T13:05:53.505Z,98459.19
2022-10-11T13:09:04.224Z,98457.91
2022-10-11T13:12:14.202Z,98471.91
2022-10-11T13:15:21.614Z,98464.09
2022-10-11T13:18:27.617Z,98468.41
2022-10-11T13:21:36.262Z,98465.06
2022-10-11T13:24:41.203Z,98467.22
2022-10-11T13:27:47.030Z,98465.81
2022-10-11T13:30:55.671Z,98466.06
2022-10-11T13:34:00.264Z,98470.16
2022-10-11T13:37:04.326Z,98467.47
2022-10-11T13:40:14.546Z,98469.84
2022-10-11T13:43:28.395Z,98472.78
2022-10-11T13:46:34.487Z,98476.00
2022-10-11T13:49:40.186Z,98474.06
2022-10-11T13:52:58.154Z,98467.63
2022-10-11T13:56:05.241Z,98475.50
2022-10-11T13:59:19.114Z,98470.53
2022-10-11T14:02:25.422Z,98478.09
2022-10-11T14:05:35.072Z,98478.94
2022-10-11T14:08:40.667Z,98468.84
2022-10-11T14:11:44.290Z,98479.59
2022-10-11T14:14:49.564Z,98485.38
2022-10-11T14:17:53.757Z,98476.94
2022-10-11T14:21:25.187Z,98472.25
2022-10-11T14:24:32.236Z,98478.59
2022-10-11T14:27:39.509Z,98479.25
2022-10-11T14:31:06.643Z,98475.59
2022-10-11T14:34:18.959Z,98472.50
2022-10-11T14:37:27.065Z,98471.03
2022-10-11T14:45:49.865Z,98472.38
2022-10-11T14:48:56.741Z,98474.50
2022-10-11T14:52:00.894Z,98477.50
2022-10-11T14:55:05.163Z,98471.59
2022-10-11T14:59:17.972Z,98478.28
2022-10-11T15:02:21.767Z,98468.72
2022-10-11T15:05:33.931Z,98470.47
2022-10-11T15:08:38.083Z,98475.19
2022-10-11T15:11:41.781Z,98481.16
2022-10-11T15:14:45.607Z,98481.44
2022-10-11T15:17:50.391Z,98475.59
2022-10-11T15:20:58.045Z,98482.56
2022-10-11T15:24:01.826Z,98476.59
2022-10-11T15:27:05.756Z,98483.97
2022-10-11T15:30:19.474Z,98479.75
2022-10-11T15:33:24.479Z,98484.03
2022-10-11T15:36:30.291Z,98479.69
2022-10-11T15:39:34.973Z,98480.78
2022-10-11T15:42:38.734Z,98485.75
2022-10-11T15:46:09.094Z,98482.78
2022-10-11T15:49:14.959Z,98489.31
2022-10-11T15:52:20.329Z,98486.56
2022-10-11T15:55:23.821Z,98497.69
2022-10-11T15:58:31.620Z,98499.50
2022-10-11T16:01:35.246Z,98493.31
2022-10-11T16:04:42.686Z,98497.41
2022-10-11T16:07:52.591Z,98502.03
2022-10-11T16:11:01.915Z,98505.25
2022-10-11T16:14:06.252Z,98506.72
2022-10-11T16:17:10.071Z,98509.13
2022-10-11T16:20:14.372Z,98511.53
2022-10-11T16:23:21.183Z,98513.84
2022-10-11T16:26:24.587Z,98519.25
2022-10-11T16:29:28.129Z,98523.19
2022-10-11T16:32:33.933Z,98530.88
2022-10-11T16:35:37.695Z,98538.13
2022-10-11T16:38:42.557Z,98539.66
2022-10-11T16:41:47.189Z,98540.75
2022-10-11T16:44:50.902Z,98543.06
2022-10-11T16:47:54.555Z,98542.06
2022-10-11T16:51:06.637Z,98548.19
2022-10-11T16:54:15.530Z,98552.38
2022-10-11T16:57:21.647Z,98549.66
2022-10-11T17:00:25.859Z,98555.59
2022-10-11T17:03:29.582Z,98553.44
2022-10-11T17:06:34.001Z,98547.25
2022-10-11T17:09:43.793Z,98558.78
2022-10-11T17:12:50.306Z,98563.34
2022-10-11T17:15:53.922Z,98566.94
2022-10-11T17:18:57.961Z,98572.75
2022-10-11T17:22:01.664Z,98578.38
2022-10-11T17:25:08.298Z,98567.84
2022-10-11T17:28:12.475Z,98577.72
2022-10-11T17:31:16.314Z,98582.09
2022-10-11T17:34:19.984Z,98576.09
2022-10-11T17:37:24.197Z,98574.53
2022-10-11T17:40:29.379Z,98579.94
2022-10-11T17:43:33.463Z,98575.94
2022-10-11T17:46:37.594Z,98583.78
2022-10-11T17:49:41.597Z,98579.44
2022-10-11T17:52:45.361Z,98583.59
2022-10-11T17:55:51.212Z,98592.63
2022-10-11T17:58:56.557Z,98578.44
2022-10-11T18:02:00.417Z,98580.22
2022-10-11T18:05:04.315Z,98583.91
2022-10-11T18:08:08.873Z,98577.13
2022-10-11T18:11:16.014Z,98579.72
2022-10-11T18:14:20.009Z,98580.41
2022-10-11T18:17:24.028Z,98588.06
2022-10-11T18:20:31.050Z,98594.97
2022-10-11T18:23:37.446Z,98591.00
2022-10-11T18:26:43.447Z,98590.69
2022-10-11T18:30:11.909Z,98594.00
2022-10-11T18:33:16.692Z,98594.00
2022-10-11T18:36:22.742Z,98584.03
2022-10-11T18:39:26.503Z,98595.81
2022-10-11T18:42:31.386Z,98590.19
2022-10-11T18:45:35.947Z,98584.72
2022-10-11T18:48:43.470Z,98597.88
2022-10-11T18:51:49.330Z,98594.59
2022-10-11T18:54:56.581Z,98591.69
2022-10-11T18:58:05.417Z,98588.78
2022-10-11T19:01:13.577Z,98589.84
2022-10-11T19:04:18.997Z,98589.94
2022-10-11T19:07:24.119Z,98588.03
2022-10-11T19:10:53.967Z,98589.34
2022-10-11T19:14:07.183Z,98585.59
2022-10-11T19:17:12.522Z,98578.03
2022-10-11T19:20:17.450Z,98592.84
2022-10-11T19:23:22.363Z,98580.34
2022-10-11T19:26:29.205Z,98590.16
2022-10-11T19:29:35.131Z,98592.94
2022-10-11T19:32:38.760Z,98595.66
2022-10-11T19:35:53.857Z,98589.56
2022-10-11T19:38:57.780Z,98591.88
2022-10-11T19:42:05.050Z,98593.94
2022-10-11T19:45:10.763Z,98587.03
2022-10-11T19:48:15.025Z,98593.44
2022-10-11T19:51:21.757Z,98594.03
2022-10-11T19:54:25.717Z,98602.25
2022-10-11T19:57:31.619Z,98592.25
2022-10-11T20:00:37.423Z,98598.66
2022-10-11T20:03:40.878Z,98599.34
2022-10-11T20:06:45.273Z,98598.06
2022-10-11T20:09:49.065Z,98598.84
2022-10-11T20:13:18.004Z,98604.19
2022-10-11T20:16:26.103Z,98604.97
2022-10-11T20:19:31.321Z,98605.06
2022-10-11T20:22:35.566Z,98598.06
2022-10-11T20:25:39.721Z,98600.59
2022-10-11T20:28:44.294Z,98607.38
2022-10-11T20:31:50.035Z,98606.22
2022-10-11T20:35:23.365Z,98607.38
2022-10-11T20:38:33.183Z,98600.59
2022-10-11T20:42:25.303Z,98604.47
2022-10-11T20:45:46.440Z,98602.34
2022-10-11T20:48:58.848Z,98610.47
2022-10-11T20:52:23.801Z,98609.59
2022-10-11T20:55:27.273Z,98608.94
2022-10-11T20:58:31.047Z,98612.81
2022-10-11T21:01:37.158Z,98615.41
2022-10-11T21:04:42.860Z,98618.81
2022-10-11T21:07:46.493Z,98613.59
2022-10-11T21:10:52.837Z,98614.63
2022-10-11T21:13:57.420Z,98615.13
2022-10-11T21:17:01.230Z,98611.72
2022-10-11T21:20:07.412Z,98607.69
2022-10-11T21:23:11.794Z,98611.06
2022-10-11T21:26:18.047Z,98608.94
2022-10-11T21:29:22.252Z,98605.81
2022-10-11T21:32:25.812Z,98609.81
2022-10-11T21:35:32.294Z,98607.31
2022-10-11T21:38:36.586Z,98596.34
2022-10-11T21:41:42.304Z,98603.69
2022-10-11T21:44:45.771Z,98597.69
2022-10-11T21:47:49.926Z,98604.00
2022-10-11T21:50:56.270Z,98598.28
2022-10-11T21:54:01.443Z,98603.22
2022-10-11T21:57:04.951Z,98599.41
2022-10-11T22:00:10.043Z,98593.81
2022-10-11T22:03:16.885Z,98599.22
2022-10-11T22:06:22.776Z,98594.69
2022-10-11T22:09:27.777Z,98585.50
2022-10-11T22:12:31.810Z,98592.16
2022-10-11T22:15:35.886Z,98584.91
2022-10-11T22:18:39.765Z,98588.56
2022-10-11T22:21:45.362Z,98589.47
2022-10-11T22:24:50.961Z,98583.84
2022-10-11T22:27:54.413Z,98594.59
2022-10-11T22:30:58.276Z,98587.44
2022-10-11T22:34:02.991Z,98591.78
2022-10-11T22:37:08.201Z,98591.59
2022-10-11T22:40:12.065Z,98591.97
2022-10-11T22:43:16.218Z,98589.34
2022-10-11T22:46:20.265Z,98597.00
2022-10-11T22:49:24.103Z,98600.19
2022-10-11T22:52:29.243Z,98591.88
2022-10-11T22:55:33.277Z,98585.84
2022-10-11T22:58:37.141Z,98597.09
2022-10-11T23:01:40.927Z,98602.81
2022-10-11T23:04:44.495Z,98604.44
2022-10-11T23:07:50.128Z,98599.16
2022-10-11T23:10:54.369Z,98608.72
2022-10-11T23:13:58.113Z,98606.03
2022-10-11T23:17:01.595Z,98596.81
2022-10-11T23:20:06.717Z,98609.03
2022-10-11T23:23:11.592Z,98614.75
2022-10-11T23:26:17.152Z,98610.66
2022-10-11T23:29:21.135Z,98618.88
2022-10-11T23:32:25.397Z,98600.19
2022-10-11T23:35:28.841Z,98611.25
2022-10-11T23:38:34.176Z,98613.66
2022-10-11T23:41:40.755Z,98598.16
2022-10-11T23:44:44.918Z,98611.16
2022-10-11T23:47:48.449Z,98612.03
2022-10-11T23:50:52.341Z,98612.03
2022-10-11T23:53:57.195Z,98626.13
2022-10-11T23:57:01.183Z,98616.97
